sensor_id;sensor_type;location;lat;lon;timestamp;P1;durP1;ratioP1;P2;durP2;ratioP2
16866;SDS011;8550;52.596;13.320;2023-05-10T00:01:13;6.13;;;2.63;;
16866;SDS011;8550;52.596;13.320;2023-05-10T00:06:15;6.90;;;2.85;;
16866;SDS011;8550;52.596;13.320;2023-05-10T00:11:17;6.38;;;2.90;;
16866;SDS011;8550;52.596;13.320;2023-05-10T00:16:20;6.70;;;3.00;;
16866;SDS011;8550;52.596;13.320;2023-05-10T00:21:22;6.57;;;3.13;;
16866;SDS011;8550;52.596;13.320;2023-05-10T00:26:24;7.43;;;2.90;;
16866;SDS011;8550;52.596;13.320;2023-05-10T00:31:27;6.00;;;2.77;;
16866;SDS011;8550;52.596;13.320;2023-05-10T00:36:29;6.07;;;2.70;;
16866;SDS011;8550;52.596;13.320;2023-05-10T00:41:31;5.75;;;2.50;;
16866;SDS011;8550;52.596;13.320;2023-05-10T00:46:34;8.43;;;3.23;;
16866;SDS011;8550;52.596;13.320;2023-05-10T00:51:37;6.33;;;2.77;;
16866;SDS011;8550;52.596;13.320;2023-05-10T00:56:39;9.30;;;3.47;;
16866;SDS011;8550;52.596;13.320;2023-05-10T01:01:42;7.28;;;3.22;;
16866;SDS011;8550;52.596;13.320;2023-05-10T01:06:45;6.37;;;2.90;;
16866;SDS011;8550;52.596;13.320;2023-05-10T01:11:47;6.03;;;3.30;;
16866;SDS011;8550;52.596;13.320;2023-05-10T01:16:51;7.18;;;2.90;;
16866;SDS011;8550;52.596;13.320;2023-05-10T01:21:57;7.53;;;2.83;;
16866;SDS011;8550;52.596;13.320;2023-05-10T01:27:14;5.95;;;2.78;;
16866;SDS011;8550;52.596;13.320;2023-05-10T01:32:28;7.20;;;3.28;;
16866;SDS011;8550;52.596;13.320;2023-05-10T01:37:38;6.53;;;2.93;;
16866;SDS011;8550;52.596;13.320;2023-05-10T01:42:46;6.63;;;3.10;;
16866;SDS011;8550;52.596;13.320;2023-05-10T01:47:56;6.20;;;2.58;;
16866;SDS011;8550;52.596;13.320;2023-05-10T01:53:06;7.72;;;3.00;;
16866;SDS011;8550;52.596;13.320;2023-05-10T01:58:13;5.13;;;2.30;;
16866;SDS011;8550;52.596;13.320;2023-05-10T02:03:20;5.78;;;2.90;;
16866;SDS011;8550;52.596;13.320;2023-05-10T02:08:25;7.63;;;2.67;;
16866;SDS011;8550;52.596;13.320;2023-05-10T02:13:27;6.63;;;2.30;;
16866;SDS011;8550;52.596;13.320;2023-05-10T02:18:34;7.25;;;2.58;;
16866;SDS011;8550;52.596;13.320;2023-05-10T02:23:37;6.50;;;2.90;;
16866;SDS011;8550;52.596;13.320;2023-05-10T02:28:40;7.90;;;3.17;;
16866;SDS011;8550;52.596;13.320;2023-05-10T02:33:44;10.27;;;3.40;;
16866;SDS011;8550;52.596;13.320;2023-05-10T02:38:48;5.95;;;2.58;;
16866;SDS011;8550;52.596;13.320;2023-05-10T02:43:52;5.55;;;2.53;;
16866;SDS011;8550;52.596;13.320;2023-05-10T02:48:59;6.80;;;2.50;;
16866;SDS011;8550;52.596;13.320;2023-05-10T02:54:03;9.90;;;2.55;;
16866;SDS011;8550;52.596;13.320;2023-05-10T02:59:10;6.20;;;2.53;;
16866;SDS011;8550;52.596;13.320;2023-05-10T03:04:13;5.27;;;2.30;;
16866;SDS011;8550;52.596;13.320;2023-05-10T03:09:15;8.30;;;2.80;;
16866;SDS011;8550;52.596;13.320;2023-05-10T03:14:21;5.05;;;2.47;;
16866;SDS011;8550;52.596;13.320;2023-05-10T03:19:32;7.57;;;2.90;;
16866;SDS011;8550;52.596;13.320;2023-05-10T03:24:38;5.80;;;2.40;;
16866;SDS011;8550;52.596;13.320;2023-05-10T03:29:42;6.10;;;2.53;;
16866;SDS011;8550;52.596;13.320;2023-05-10T03:34:47;6.32;;;2.75;;
16866;SDS011;8550;52.596;13.320;2023-05-10T03:39:49;8.47;;;2.80;;
16866;SDS011;8550;52.596;13.320;2023-05-10T03:44:51;10.75;;;2.70;;
16866;SDS011;8550;52.596;13.320;2023-05-10T03:49:54;7.35;;;2.70;;
16866;SDS011;8550;52.596;13.320;2023-05-10T03:54:58;9.23;;;2.63;;
16866;SDS011;8550;52.596;13.320;2023-05-10T04:00:02;5.80;;;2.78;;
16866;SDS011;8550;52.596;13.320;2023-05-10T04:05:06;7.30;;;2.75;;
16866;SDS011;8550;52.596;13.320;2023-05-10T04:10:08;5.70;;;2.20;;
16866;SDS011;8550;52.596;13.320;2023-05-10T04:15:11;7.07;;;2.87;;
16866;SDS011;8550;52.596;13.320;2023-05-10T04:20:14;6.50;;;2.55;;
16866;SDS011;8550;52.596;13.320;2023-05-10T04:25:17;6.30;;;2.60;;
16866;SDS011;8550;52.596;13.320;2023-05-10T04:30:18;7.37;;;2.80;;
16866;SDS011;8550;52.596;13.320;2023-05-10T04:35:22;11.30;;;2.60;;
16866;SDS011;8550;52.596;13.320;2023-05-10T04:40:25;6.47;;;2.35;;
16866;SDS011;8550;52.596;13.320;2023-05-10T04:45:27;7.37;;;2.43;;
16866;SDS011;8550;52.596;13.320;2023-05-10T04:50:30;8.05;;;2.13;;
16866;SDS011;8550;52.596;13.320;2023-05-10T04:55:32;8.98;;;2.63;;
16866;SDS011;8550;52.596;13.320;2023-05-10T05:00:34;7.33;;;2.17;;
16866;SDS011;8550;52.596;13.320;2023-05-10T05:05:43;6.17;;;2.33;;
16866;SDS011;8550;52.596;13.320;2023-05-10T05:10:59;8.23;;;2.47;;
16866;SDS011;8550;52.596;13.320;2023-05-10T05:16:01;5.68;;;2.72;;
16866;SDS011;8550;52.596;13.320;2023-05-10T05:21:12;6.50;;;2.13;;
16866;SDS011;8550;52.596;13.320;2023-05-10T05:26:15;4.40;;;1.98;;
16866;SDS011;8550;52.596;13.320;2023-05-10T05:31:17;4.85;;;2.08;;
16866;SDS011;8550;52.596;13.320;2023-05-10T05:36:20;5.17;;;2.33;;
16866;SDS011;8550;52.596;13.320;2023-05-10T05:41:23;5.93;;;1.85;;
16866;SDS011;8550;52.596;13.320;2023-05-10T05:46:26;5.18;;;2.25;;
16866;SDS011;8550;52.596;13.320;2023-05-10T05:51:29;7.93;;;1.80;;
16866;SDS011;8550;52.596;13.320;2023-05-10T05:56:31;5.40;;;2.00;;
16866;SDS011;8550;52.596;13.320;2023-05-10T06:01:34;4.65;;;1.77;;
16866;SDS011;8550;52.596;13.320;2023-05-10T06:06:37;4.90;;;1.88;;
16866;SDS011;8550;52.596;13.320;2023-05-10T06:11:39;3.50;;;1.70;;
16866;SDS011;8550;52.596;13.320;2023-05-10T06:16:42;4.15;;;1.70;;
16866;SDS011;8550;52.596;13.320;2023-05-10T06:21:45;5.90;;;2.22;;
16866;SDS011;8550;52.596;13.320;2023-05-10T06:26:47;5.33;;;1.90;;
16866;SDS011;8550;52.596;13.320;2023-05-10T06:31:50;5.18;;;1.58;;
16866;SDS011;8550;52.596;13.320;2023-05-10T06:36:53;3.60;;;1.48;;
16866;SDS011;8550;52.596;13.320;2023-05-10T06:41:55;4.17;;;1.53;;
16866;SDS011;8550;52.596;13.320;2023-05-10T06:46:57;8.07;;;1.87;;
16866;SDS011;8550;52.596;13.320;2023-05-10T06:52:00;3.88;;;1.63;;
16866;SDS011;8550;52.596;13.320;2023-05-10T06:57:02;5.93;;;1.65;;
16866;SDS011;8550;52.596;13.320;2023-05-10T07:02:04;4.87;;;1.57;;
16866;SDS011;8550;52.596;13.320;2023-05-10T07:07:08;6.00;;;1.63;;
16866;SDS011;8550;52.596;13.320;2023-05-10T07:12:10;3.63;;;1.30;;
16866;SDS011;8550;52.596;13.320;2023-05-10T07:17:12;4.23;;;1.40;;
16866;SDS011;8550;52.596;13.320;2023-05-10T07:22:18;4.70;;;1.60;;
16866;SDS011;8550;52.596;13.320;2023-05-10T07:27:20;3.33;;;1.25;;
16866;SDS011;8550;52.596;13.320;2023-05-10T07:32:22;4.67;;;1.90;;
16866;SDS011;8550;52.596;13.320;2023-05-10T07:37:25;4.73;;;1.53;;
16866;SDS011;8550;52.596;13.320;2023-05-10T07:42:27;5.88;;;1.50;;
16866;SDS011;8550;52.596;13.320;2023-05-10T07:47:29;4.78;;;1.60;;
16866;SDS011;8550;52.596;13.320;2023-05-10T07:52:33;3.80;;;1.77;;
16866;SDS011;8550;52.596;13.320;2023-05-10T07:57:35;6.15;;;1.85;;
16866;SDS011;8550;52.596;13.320;2023-05-10T08:02:36;8.68;;;1.70;;
16866;SDS011;8550;52.596;13.320;2023-05-10T08:07:42;6.23;;;1.73;;
16866;SDS011;8550;52.596;13.320;2023-05-10T08:12:44;4.38;;;1.60;;
16866;SDS011;8550;52.596;13.320;2023-05-10T08:17:46;4.85;;;1.58;;
16866;SDS011;8550;52.596;13.320;2023-05-10T08:22:50;5.13;;;1.90;;
16866;SDS011;8550;52.596;13.320;2023-05-10T08:27:52;4.90;;;1.70;;
16866;SDS011;8550;52.596;13.320;2023-05-10T08:32:54;11.55;;;5.68;;
16866;SDS011;8550;52.596;13.320;2023-05-10T08:37:57;4.30;;;1.40;;
16866;SDS011;8550;52.596;13.320;2023-05-10T08:43:04;5.67;;;2.00;;
16866;SDS011;8550;52.596;13.320;2023-05-10T08:48:07;3.33;;;1.50;;
16866;SDS011;8550;52.596;13.320;2023-05-10T08:53:12;6.25;;;2.17;;
16866;SDS011;8550;52.596;13.320;2023-05-10T08:58:15;6.73;;;1.70;;
16866;SDS011;8550;52.596;13.320;2023-05-10T09:03:19;3.70;;;1.45;;
16866;SDS011;8550;52.596;13.320;2023-05-10T09:08:23;4.15;;;1.98;;
16866;SDS011;8550;52.596;13.320;2023-05-10T09:13:26;4.60;;;1.80;;
16866;SDS011;8550;52.596;13.320;2023-05-10T09:18:29;5.47;;;1.97;;
16866;SDS011;8550;52.596;13.320;2023-05-10T09:23:33;5.32;;;2.28;;
16866;SDS011;8550;52.596;13.320;2023-05-10T09:28:49;7.75;;;1.50;;
16866;SDS011;8550;52.596;13.320;2023-05-10T09:33:52;5.17;;;2.20;;
16866;SDS011;8550;52.596;13.320;2023-05-10T09:38:56;3.63;;;1.58;;
16866;SDS011;8550;52.596;13.320;2023-05-10T09:43:59;4.95;;;1.85;;
16866;SDS011;8550;52.596;13.320;2023-05-10T09:49:00;5.07;;;2.00;;
16866;SDS011;8550;52.596;13.320;2023-05-10T09:54:10;4.50;;;1.77;;
16866;SDS011;8550;52.596;13.320;2023-05-10T09:59:14;8.40;;;2.53;;
16866;SDS011;8550;52.596;13.320;2023-05-10T10:04:17;9.73;;;2.30;;
16866;SDS011;8550;52.596;13.320;2023-05-10T10:09:22;9.97;;;5.90;;
16866;SDS011;8550;52.596;13.320;2023-05-10T10:14:24;6.50;;;1.70;;
16866;SDS011;8550;52.596;13.320;2023-05-10T10:19:28;5.20;;;2.15;;
16866;SDS011;8550;52.596;13.320;2023-05-10T10:24:46;4.40;;;2.13;;
16866;SDS011;8550;52.596;13.320;2023-05-10T10:30:02;3.38;;;1.10;;
16866;SDS011;8550;52.596;13.320;2023-05-10T10:35:27;3.70;;;1.65;;
16866;SDS011;8550;52.596;13.320;2023-05-10T10:40:32;3.83;;;1.73;;
16866;SDS011;8550;52.596;13.320;2023-05-10T10:45:38;4.88;;;1.73;;
16866;SDS011;8550;52.596;13.320;2023-05-10T10:50:44;4.97;;;2.00;;
16866;SDS011;8550;52.596;13.320;2023-05-10T10:55:48;5.00;;;1.90;;
16866;SDS011;8550;52.596;13.320;2023-05-10T11:00:50;4.17;;;1.53;;
16866;SDS011;8550;52.596;13.320;2023-05-10T11:06:11;4.15;;;2.05;;
16866;SDS011;8550;52.596;13.320;2023-05-10T11:11:15;7.60;;;1.83;;
16866;SDS011;8550;52.596;13.320;2023-05-10T11:16:18;6.57;;;2.70;;
16866;SDS011;8550;52.596;13.320;2023-05-10T11:21:20;4.10;;;1.63;;
16866;SDS011;8550;52.596;13.320;2023-05-10T11:26:25;6.47;;;1.83;;
16866;SDS011;8550;52.596;13.320;2023-05-10T11:31:31;4.90;;;2.03;;
16866;SDS011;8550;52.596;13.320;2023-05-10T11:36:33;4.28;;;1.77;;
16866;SDS011;8550;52.596;13.320;2023-05-10T11:41:39;4.70;;;2.10;;
16866;SDS011;8550;52.596;13.320;2023-05-10T11:46:41;6.60;;;2.60;;
16866;SDS011;8550;52.596;13.320;2023-05-10T11:51:43;4.53;;;1.67;;
16866;SDS011;8550;52.596;13.320;2023-05-10T11:56:47;3.65;;;1.75;;
16866;SDS011;8550;52.596;13.320;2023-05-10T12:01:51;6.50;;;1.95;;
16866;SDS011;8550;52.596;13.320;2023-05-10T12:06:53;13.10;;;9.07;;
16866;SDS011;8550;52.596;13.320;2023-05-10T12:11:56;4.00;;;1.92;;
16866;SDS011;8550;52.596;13.320;2023-05-10T12:16:58;3.55;;;1.75;;
16866;SDS011;8550;52.596;13.320;2023-05-10T12:22:04;4.10;;;2.20;;
16866;SDS011;8550;52.596;13.320;2023-05-10T12:27:08;6.45;;;2.17;;
16866;SDS011;8550;52.596;13.320;2023-05-10T12:32:12;5.05;;;1.80;;
16866;SDS011;8550;52.596;13.320;2023-05-10T12:37:14;5.93;;;2.17;;
16866;SDS011;8550;52.596;13.320;2023-05-10T12:42:18;6.00;;;2.40;;
16866;SDS011;8550;52.596;13.320;2023-05-10T12:47:20;6.97;;;2.13;;
16866;SDS011;8550;52.596;13.320;2023-05-10T12:52:22;6.82;;;2.30;;
16866;SDS011;8550;52.596;13.320;2023-05-10T12:57:25;4.80;;;2.23;;
16866;SDS011;8550;52.596;13.320;2023-05-10T13:02:28;5.53;;;2.15;;
16866;SDS011;8550;52.596;13.320;2023-05-10T13:07:32;7.35;;;2.17;;
16866;SDS011;8550;52.596;13.320;2023-05-10T13:12:36;5.23;;;2.07;;
16866;SDS011;8550;52.596;13.320;2023-05-10T13:17:38;4.35;;;1.90;;
16866;SDS011;8550;52.596;13.320;2023-05-10T13:22:40;6.15;;;2.13;;
16866;SDS011;8550;52.596;13.320;2023-05-10T13:27:44;4.37;;;2.10;;
16866;SDS011;8550;52.596;13.320;2023-05-10T13:32:46;5.10;;;2.20;;
16866;SDS011;8550;52.596;13.320;2023-05-10T13:37:48;7.88;;;2.30;;
16866;SDS011;8550;52.596;13.320;2023-05-10T13:42:51;4.40;;;1.88;;
16866;SDS011;8550;52.596;13.320;2023-05-10T13:47:53;3.73;;;2.07;;
16866;SDS011;8550;52.596;13.320;2023-05-10T13:52:55;4.55;;;2.10;;
16866;SDS011;8550;52.596;13.320;2023-05-10T13:57:59;4.45;;;2.20;;
16866;SDS011;8550;52.596;13.320;2023-05-10T14:03:01;4.40;;;1.90;;
16866;SDS011;8550;52.596;13.320;2023-05-10T14:08:04;3.55;;;2.00;;
16866;SDS011;8550;52.596;13.320;2023-05-10T14:13:08;4.18;;;2.03;;
16866;SDS011;8550;52.596;13.320;2023-05-10T14:18:11;5.40;;;2.20;;
16866;SDS011;8550;52.596;13.320;2023-05-10T14:23:12;3.50;;;1.90;;
16866;SDS011;8550;52.596;13.320;2023-05-10T14:28:16;5.32;;;2.03;;
16866;SDS011;8550;52.596;13.320;2023-05-10T14:33:19;6.43;;;2.00;;
16866;SDS011;8550;52.596;13.320;2023-05-10T14:38:21;5.53;;;1.77;;
16866;SDS011;8550;52.596;13.320;2023-05-10T14:43:25;6.85;;;2.17;;
16866;SDS011;8550;52.596;13.320;2023-05-10T14:48:28;5.25;;;2.60;;
16866;SDS011;8550;52.596;13.320;2023-05-10T14:53:30;4.83;;;2.17;;
16866;SDS011;8550;52.596;13.320;2023-05-10T14:58:34;3.85;;;1.85;;
16866;SDS011;8550;52.596;13.320;2023-05-10T15:03:36;3.90;;;1.85;;
16866;SDS011;8550;52.596;13.320;2023-05-10T15:08:38;3.53;;;1.73;;
16866;SDS011;8550;52.596;13.320;2023-05-10T15:13:41;4.17;;;2.20;;
16866;SDS011;8550;52.596;13.320;2023-05-10T15:18:46;4.65;;;2.35;;
16866;SDS011;8550;52.596;13.320;2023-05-10T15:23:49;5.15;;;2.40;;
16866;SDS011;8550;52.596;13.320;2023-05-10T15:28:53;5.57;;;1.83;;
16866;SDS011;8550;52.596;13.320;2023-05-10T15:33:56;3.78;;;1.92;;
16866;SDS011;8550;52.596;13.320;2023-05-10T15:38:59;4.60;;;2.03;;
16866;SDS011;8550;52.596;13.320;2023-05-10T15:44:02;4.53;;;2.00;;
16866;SDS011;8550;52.596;13.320;2023-05-10T15:49:04;6.60;;;2.00;;
16866;SDS011;8550;52.596;13.320;2023-05-10T15:54:07;4.20;;;2.00;;
16866;SDS011;8550;52.596;13.320;2023-05-10T15:59:11;3.93;;;1.83;;
16866;SDS011;8550;52.596;13.320;2023-05-10T16:04:13;4.93;;;2.00;;
16866;SDS011;8550;52.596;13.320;2023-05-10T16:09:15;4.30;;;1.80;;
16866;SDS011;8550;52.596;13.320;2023-05-10T16:14:19;6.18;;;1.85;;
16866;SDS011;8550;52.596;13.320;2023-05-10T16:19:23;5.40;;;2.23;;
16866;SDS011;8550;52.596;13.320;2023-05-10T16:24:25;4.82;;;1.90;;
16866;SDS011;8550;52.596;13.320;2023-05-10T16:29:28;4.55;;;1.60;;
16866;SDS011;8550;52.596;13.320;2023-05-10T16:34:31;10.73;;;2.67;;
16866;SDS011;8550;52.596;13.320;2023-05-10T16:39:33;6.85;;;2.70;;
16866;SDS011;8550;52.596;13.320;2023-05-10T16:44:36;6.70;;;2.70;;
16866;SDS011;8550;52.596;13.320;2023-05-10T16:49:38;7.60;;;3.33;;
16866;SDS011;8550;52.596;13.320;2023-05-10T16:54:40;5.30;;;2.90;;
16866;SDS011;8550;52.596;13.320;2023-05-10T16:59:49;6.32;;;3.13;;
16866;SDS011;8550;52.596;13.320;2023-05-10T17:04:52;6.85;;;3.33;;
16866;SDS011;8550;52.596;13.320;2023-05-10T17:09:55;7.07;;;3.30;;
16866;SDS011;8550;52.596;13.320;2023-05-10T17:14:59;6.60;;;3.83;;
16866;SDS011;8550;52.596;13.320;2023-05-10T17:20:01;6.63;;;3.08;;
16866;SDS011;8550;52.596;13.320;2023-05-10T17:25:04;7.10;;;3.00;;
16866;SDS011;8550;52.596;13.320;2023-05-10T17:30:09;5.43;;;2.90;;
16866;SDS011;8550;52.596;13.320;2023-05-10T17:35:11;6.13;;;2.88;;
16866;SDS011;8550;52.596;13.320;2023-05-10T17:40:13;5.10;;;2.60;;
16866;SDS011;8550;52.596;13.320;2023-05-10T17:45:17;7.00;;;2.60;;
16866;SDS011;8550;52.596;13.320;2023-05-10T17:50:19;5.57;;;3.13;;
16866;SDS011;8550;52.596;13.320;2023-05-10T17:55:21;5.60;;;3.05;;
16866;SDS011;8550;52.596;13.320;2023-05-10T18:00:24;6.37;;;2.90;;
16866;SDS011;8550;52.596;13.320;2023-05-10T18:05:26;7.82;;;2.97;;
16866;SDS011;8550;52.596;13.320;2023-05-10T18:10:28;5.90;;;3.05;;
16866;SDS011;8550;52.596;13.320;2023-05-10T18:15:33;7.00;;;3.10;;
16866;SDS011;8550;52.596;13.320;2023-05-10T18:20:35;8.10;;;3.15;;
16866;SDS011;8550;52.596;13.320;2023-05-10T18:25:37;5.85;;;3.28;;
16866;SDS011;8550;52.596;13.320;2023-05-10T18:30:41;7.17;;;3.60;;
16866;SDS011;8550;52.596;13.320;2023-05-10T18:35:43;6.03;;;2.67;;
16866;SDS011;8550;52.596;13.320;2023-05-10T18:40:44;5.88;;;3.55;;
16866;SDS011;8550;52.596;13.320;2023-05-10T18:45:48;7.57;;;3.45;;
16866;SDS011;8550;52.596;13.320;2023-05-10T18:50:50;6.30;;;3.30;;
16866;SDS011;8550;52.596;13.320;2023-05-10T18:55:55;5.90;;;3.50;;
16866;SDS011;8550;52.596;13.320;2023-05-10T19:00:59;6.22;;;3.05;;
16866;SDS011;8550;52.596;13.320;2023-05-10T19:06:01;7.10;;;3.27;;
16866;SDS011;8550;52.596;13.320;2023-05-10T19:11:03;20.80;;;8.93;;
16866;SDS011;8550;52.596;13.320;2023-05-10T19:16:09;6.78;;;3.38;;
16866;SDS011;8550;52.596;13.320;2023-05-10T19:21:11;9.47;;;3.93;;
16866;SDS011;8550;52.596;13.320;2023-05-10T19:26:13;6.30;;;3.43;;
16866;SDS011;8550;52.596;13.320;2023-05-10T19:31:17;8.48;;;3.42;;
16866;SDS011;8550;52.596;13.320;2023-05-10T19:36:19;6.22;;;3.05;;
16866;SDS011;8550;52.596;13.320;2023-05-10T19:41:21;6.83;;;3.53;;
16866;SDS011;8550;52.596;13.320;2023-05-10T19:46:25;6.45;;;3.85;;
16866;SDS011;8550;52.596;13.320;2023-05-10T19:51:27;8.65;;;3.70;;
16866;SDS011;8550;52.596;13.320;2023-05-10T19:56:29;5.67;;;3.57;;
16866;SDS011;8550;52.596;13.320;2023-05-10T20:01:32;6.22;;;3.35;;
16866;SDS011;8550;52.596;13.320;2023-05-10T20:06:34;8.73;;;3.60;;
16866;SDS011;8550;52.596;13.320;2023-05-10T20:11:36;7.73;;;4.50;;
16866;SDS011;8550;52.596;13.320;2023-05-10T20:16:39;21.13;;;10.80;;
16866;SDS011;8550;52.596;13.320;2023-05-10T20:21:41;15.18;;;8.50;;
16866;SDS011;8550;52.596;13.320;2023-05-10T20:26:43;21.90;;;13.00;;
16866;SDS011;8550;52.596;13.320;2023-05-10T20:31:47;11.47;;;6.30;;
16866;SDS011;8550;52.596;13.320;2023-05-10T20:36:49;9.80;;;6.20;;
16866;SDS011;8550;52.596;13.320;2023-05-10T20:41:51;7.30;;;4.32;;
16866;SDS011;8550;52.596;13.320;2023-05-10T20:46:55;11.83;;;5.57;;
16866;SDS011;8550;52.596;13.320;2023-05-10T20:51:58;10.95;;;4.13;;
16866;SDS011;8550;52.596;13.320;2023-05-10T20:57:00;9.60;;;4.15;;
16866;SDS011;8550;52.596;13.320;2023-05-10T21:02:03;8.13;;;4.93;;
16866;SDS011;8550;52.596;13.320;2023-05-10T21:07:05;7.57;;;4.33;;
16866;SDS011;8550;52.596;13.320;2023-05-10T21:12:07;8.68;;;4.68;;
16866;SDS011;8550;52.596;13.320;2023-05-10T21:17:11;10.50;;;5.65;;
16866;SDS011;8550;52.596;13.320;2023-05-10T21:22:13;9.40;;;5.00;;
16866;SDS011;8550;52.596;13.320;2023-05-10T21:27:15;8.68;;;5.22;;
16866;SDS011;8550;52.596;13.320;2023-05-10T21:32:18;10.32;;;5.15;;
16866;SDS011;8550;52.596;13.320;2023-05-10T21:37:20;10.93;;;4.97;;
16866;SDS011;8550;52.596;13.320;2023-05-10T21:42:22;8.35;;;4.93;;
16866;SDS011;8550;52.596;13.320;2023-05-10T21:47:26;8.35;;;4.88;;
16866;SDS011;8550;52.596;13.320;2023-05-10T21:52:27;8.03;;;5.17;;
16866;SDS011;8550;52.596;13.320;2023-05-10T21:57:30;10.10;;;6.17;;
16866;SDS011;8550;52.596;13.320;2023-05-10T22:02:34;9.07;;;4.70;;
16866;SDS011;8550;52.596;13.320;2023-05-10T22:07:35;7.70;;;4.35;;
16866;SDS011;8550;52.596;13.320;2023-05-10T22:12:37;7.13;;;4.03;;
16866;SDS011;8550;52.596;13.320;2023-05-10T22:17:41;7.30;;;4.22;;
16866;SDS011;8550;52.596;13.320;2023-05-10T22:22:43;11.02;;;4.93;;
16866;SDS011;8550;52.596;13.320;2023-05-10T22:27:45;8.27;;;4.50;;
16866;SDS011;8550;52.596;13.320;2023-05-10T22:32:48;7.60;;;4.32;;
16866;SDS011;8550;52.596;13.320;2023-05-10T22:37:50;8.45;;;4.72;;
16866;SDS011;8550;52.596;13.320;2023-05-10T22:42:52;8.43;;;4.17;;
16866;SDS011;8550;52.596;13.320;2023-05-10T22:47:56;8.67;;;4.97;;
16866;SDS011;8550;52.596;13.320;2023-05-10T22:52:57;8.77;;;4.63;;
16866;SDS011;8550;52.596;13.320;2023-05-10T22:57:59;9.35;;;5.03;;
16866;SDS011;8550;52.596;13.320;2023-05-10T23:03:03;16.00;;;4.80;;
16866;SDS011;8550;52.596;13.320;2023-05-10T23:08:06;9.35;;;5.32;;
16866;SDS011;8550;52.596;13.320;2023-05-10T23:13:08;8.88;;;4.75;;
16866;SDS011;8550;52.596;13.320;2023-05-10T23:18:11;8.70;;;4.50;;
16866;SDS011;8550;52.596;13.320;2023-05-10T23:23:13;8.50;;;4.72;;
16866;SDS011;8550;52.596;13.320;2023-05-10T23:28:15;9.70;;;4.97;;
16866;SDS011;8550;52.596;13.320;2023-05-10T23:33:19;9.23;;;5.23;;
16866;SDS011;8550;52.596;13.320;2023-05-10T23:38:21;8.50;;;5.20;;
16866;SDS011;8550;52.596;13.320;2023-05-10T23:43:23;11.27;;;5.15;;
16866;SDS011;8550;52.596;13.320;2023-05-10T23:48:26;9.30;;;4.90;;
16866;SDS011;8550;52.596;13.320;2023-05-10T23:53:28;10.73;;;5.00;;
16866;SDS011;8550;52.596;13.320;2023-05-10T23:58:30;9.90;;;5.05;;
